Terminal Aerodrome Forecast
Issued by NWS Grand Rapids, MI

Home | Current Version | Previous Version | Text Only | Print | Product List | Glossary On
Versions: 1 2 3 4 5 6 7 8 9 10 11 12 13 14 15 16 17 18 19 20 21 22 23 24 25 26 27
000
FTUS43 KGRR 212200 AAA
TAFGRR
TAF AMD
KGRR 212251Z 2123/2218 00000KT P6SM BKN014 BKN120 OVC210
     FM220400 17006KT P6SM VCTS SCT035CB BKN060
     FM221100 17005KT P6SM SCT060 BKN120=

USA.gov is the U.S. government's official web portal to all federal, state and local government web resources and services.